createdAt,value
2018-11-01T00:00:04.096Z,99.99
2018-11-01T00:01:04.117Z,99.99
2018-11-01T00:02:04.130Z,99.99
2018-11-01T00:03:04.131Z,99.99
2018-11-01T00:04:04.145Z,99.99
2018-11-01T00:05:04.157Z,99.99
2018-11-01T00:06:04.173Z,99.99
2018-11-01T00:07:04.191Z,99.99
2018-11-01T00:08:04.195Z,99.99
2018-11-01T00:09:04.202Z,99.99
2018-11-01T00:10:04.213Z,99.99
2018-11-01T00:11:04.223Z,99.99
2018-11-01T00:12:04.237Z,99.99
2018-11-01T00:13:04.241Z,99.99
2018-11-01T00:14:04.253Z,99.99
2018-11-01T00:15:04.262Z,99.99
2018-11-01T00:16:04.277Z,99.99
2018-11-01T00:17:04.287Z,99.99
2018-11-01T00:18:04.301Z,99.99
2018-11-01T00:19:04.311Z,99.99
2018-11-01T00:20:04.321Z,99.99
2018-11-01T00:21:04.334Z,99.99
2018-11-01T00:22:04.343Z,99.99
2018-11-01T00:23:04.357Z,99.99
2018-11-01T00:24:04.368Z,99.99
2018-11-01T00:25:04.381Z,99.99
2018-11-01T00:26:04.399Z,99.99
2018-11-01T00:27:04.404Z,99.99
2018-11-01T00:28:04.419Z,99.99
2018-11-01T00:29:04.429Z,99.99
2018-11-01T00:30:04.437Z,99.99
2018-11-01T00:31:04.456Z,99.99
2018-11-01T00:32:04.469Z,99.99
2018-11-01T00:33:04.473Z,99.99
2018-11-01T00:34:04.481Z,99.99
2018-11-01T00:35:04.493Z,99.99
2018-11-01T00:36:04.504Z,99.99
2018-11-01T00:37:04.517Z,99.99
2018-11-01T00:38:04.528Z,99.99
2018-11-01T00:39:04.541Z,99.99
2018-11-01T00:40:04.557Z,99.99
2018-11-01T00:41:04.564Z,99.99
2018-11-01T00:42:04.577Z,99.99
2018-11-01T00:43:04.589Z,99.99
2018-11-01T00:44:04.600Z,99.99
2018-11-01T00:45:04.633Z,99.99
2018-11-01T00:46:04.621Z,99.99
2018-11-01T00:47:04.635Z,99.99
2018-11-01T00:48:04.642Z,99.99
2018-11-01T00:49:04.655Z,99.99
2018-11-01T00:50:04.666Z,99.99
2018-11-01T00:51:04.693Z,99.99
2018-11-01T00:52:04.690Z,99.99
2018-11-01T00:53:04.705Z,99.99
2018-11-01T00:54:04.714Z,99.99
2018-11-01T00:55:04.724Z,99.99
2018-11-01T00:56:04.737Z,99.99
2018-11-01T00:57:04.747Z,99.99
2018-11-01T00:58:04.756Z,99.99
2018-11-01T01:00:04.790Z,99.99
2018-11-01T01:01:04.794Z,99.99
2018-11-01T01:02:04.808Z,99.99
2018-11-01T01:03:04.816Z,99.99
2018-11-01T01:04:04.835Z,99.99
2018-11-01T01:05:04.839Z,99.99
2018-11-01T01:06:04.850Z,99.99
2018-11-01T01:07:04.861Z,99.99
2018-11-01T01:08:04.872Z,99.99
2018-11-01T01:09:04.885Z,99.99
2018-11-01T01:10:04.908Z,99.99
2018-11-01T01:11:04.914Z,99.99
2018-11-01T01:12:04.930Z,99.99
2018-11-01T01:13:04.931Z,99.99
2018-11-01T01:14:04.940Z,99.99
2018-11-01T01:15:05.281Z,99.99
2018-11-01T01:16:04.966Z,99.99
2018-11-01T01:17:04.976Z,99.99
2018-11-01T01:18:04.988Z,99.99
2018-11-01T01:19:05.058Z,99.99
2018-11-01T01:20:05.012Z,99.99
2018-11-01T01:21:05.022Z,99.99
2018-11-01T01:22:05.032Z,99.99
2018-11-01T01:23:05.045Z,99.99
2018-11-01T01:24:05.068Z,99.99
2018-11-01T01:25:05.070Z,99.99
2018-11-01T01:26:05.078Z,99.99
2018-11-01T01:27:05.095Z,99.99
2018-11-01T01:28:05.101Z,99.99
2018-11-01T01:29:05.114Z,99.99
2018-11-01T01:30:05.129Z,99.99
2018-11-01T01:31:05.140Z,99.99
2018-11-01T01:32:05.165Z,99.99
2018-11-01T01:33:05.158Z,99.99
2018-11-01T01:34:05.172Z,99.99
2018-11-01T01:35:05.185Z,99.99
2018-11-01T01:36:05.197Z,99.99
2018-11-01T01:37:05.212Z,99.99
2018-11-01T01:38:05.218Z,99.99
2018-11-01T01:39:05.228Z,99.99
2018-11-01T01:40:05.240Z,99.99
2018-11-01T01:41:05.251Z,99.99
2018-11-01T01:42:05.262Z,99.99
2018-11-01T01:43:05.275Z,99.99
2018-11-01T01:44:05.284Z,99.99
2018-11-01T01:45:05.295Z,99.99
2018-11-01T01:46:05.306Z,99.99
2018-11-01T01:47:05.321Z,99.99
2018-11-01T01:48:05.331Z,99.99
2018-11-01T01:49:05.355Z,99.99
2018-11-01T01:50:05.353Z,99.99
2018-11-01T01:51:05.371Z,99.99
2018-11-01T01:52:05.382Z,99.99
2018-11-01T01:53:05.390Z,99.99
2018-11-01T01:54:05.398Z,99.99
2018-11-01T01:55:05.411Z,99.99
2018-11-01T01:56:05.432Z,99.99
2018-11-01T01:57:05.432Z,99.99
2018-11-01T01:58:05.442Z,99.99
2018-11-01T01:59:05.459Z,99.99
2018-11-01T02:00:05.479Z,99.99
2018-11-01T02:01:05.478Z,99.99
2018-11-01T02:02:05.491Z,99.99
2018-11-01T02:03:05.504Z,99.99
2018-11-01T02:04:05.517Z,99.84
2018-11-01T02:05:05.526Z,99.94
2018-11-01T02:06:05.535Z,99.37
2018-11-01T02:07:05.545Z,99.55
2018-11-01T02:08:05.559Z,99.46
2018-11-01T02:09:05.581Z,99.99
2018-11-01T02:10:05.585Z,99.94
2018-11-01T02:11:05.592Z,99.55
2018-11-01T02:12:05.606Z,99.18
2018-11-01T02:13:05.619Z,99.18
2018-11-01T02:14:05.627Z,99.27
2018-11-01T02:15:05.638Z,99.08
2018-11-01T02:16:05.649Z,99.46
2018-11-01T02:17:05.662Z,98.51
2018-11-01T02:18:05.678Z,98.51
2018-11-01T02:19:05.689Z,98.99
2018-11-01T02:20:05.698Z,98.51
2018-11-01T02:21:05.708Z,98.41
2018-11-01T02:22:05.721Z,98.51
2018-11-01T02:23:05.730Z,98.22
2018-11-01T02:24:05.742Z,98.13
2018-11-01T02:25:05.758Z,97.75
2018-11-01T02:26:05.768Z,97.75
2018-11-01T02:27:05.776Z,97.46
2018-11-01T02:28:05.789Z,97.84
2018-11-01T02:29:05.802Z,98.03
2018-11-01T02:30:06.123Z,98.32
2018-11-01T02:31:05.830Z,98.03
2018-11-01T02:32:05.834Z,97.84
2018-11-01T02:33:05.847Z,97.46
2018-11-01T02:34:05.859Z,97.27
2018-11-01T02:35:05.880Z,97.46
2018-11-01T02:36:05.881Z,97.46
2018-11-01T02:37:05.914Z,96.80
2018-11-01T02:38:05.981Z,96.80
2018-11-01T02:39:05.915Z,96.80
2018-11-01T02:40:05.927Z,96.03
2018-11-01T02:41:05.939Z,97.08
2018-11-01T02:42:05.949Z,96.32
2018-11-01T02:43:05.959Z,96.32
2018-11-01T02:44:05.974Z,96.89
2018-11-01T02:45:05.984Z,96.03
2018-11-01T02:46:05.997Z,95.56
2018-11-01T02:47:06.009Z,95.75
2018-11-01T02:48:06.021Z,96.12
2018-11-01T02:49:06.033Z,95.56
2018-11-01T02:50:06.042Z,95.46
2018-11-01T02:51:06.053Z,95.46
2018-11-01T02:52:06.066Z,95.56
2018-11-01T02:53:06.076Z,96.32
2018-11-01T02:54:06.101Z,95.41
2018-11-01T02:55:06.114Z,95.36
2018-11-01T02:56:06.115Z,95.94
2018-11-01T02:57:06.125Z,96.22
2018-11-01T02:58:06.135Z,96.03
2018-11-01T02:59:06.353Z,95.65
2018-11-01T03:00:06.159Z,95.75
2018-11-01T03:01:06.172Z,96.03
2018-11-01T03:02:06.181Z,96.89
2018-11-01T03:03:06.200Z,96.22
2018-11-01T03:04:06.205Z,96.12
2018-11-01T03:05:06.217Z,96.41
2018-11-01T03:06:06.232Z,96.70
2018-11-01T03:07:06.240Z,96.80
2018-11-01T03:08:06.252Z,97.27
2018-11-01T03:09:06.264Z,97.84
2018-11-01T03:10:06.281Z,97.46
2018-11-01T03:11:06.285Z,97.46
2018-11-01T03:12:06.300Z,97.08
2018-11-01T03:13:06.317Z,97.27
2018-11-01T03:14:06.322Z,97.75
2018-11-01T03:15:06.341Z,98.55
2018-11-01T03:16:06.343Z,98.41
2018-11-01T03:17:06.424Z,98.46
2018-11-01T03:18:06.376Z,99.03
2018-11-01T03:19:06.382Z,98.94
2018-11-01T03:20:06.388Z,98.94
2018-11-01T03:21:06.404Z,98.94
2018-11-01T03:22:06.437Z,98.55
2018-11-01T03:23:06.426Z,99.51
2018-11-01T03:24:06.437Z,99.13
2018-11-01T03:25:06.449Z,99.69
2018-11-01T03:26:06.456Z,99.69
2018-11-01T03:27:06.472Z,99.99
2018-11-01T03:28:06.482Z,99.98
2018-11-01T03:29:06.491Z,99.99
2018-11-01T03:30:06.657Z,99.69
2018-11-01T03:31:06.512Z,99.99
2018-11-01T03:32:06.526Z,99.99
2018-11-01T03:33:06.740Z,99.99
2018-11-01T03:34:06.548Z,99.41
2018-11-01T03:35:06.578Z,99.99
2018-11-01T03:36:06.569Z,99.99
2018-11-01T03:37:06.581Z,99.99
2018-11-01T03:38:06.660Z,99.99
2018-11-01T03:39:06.724Z,99.99
2018-11-01T03:40:06.616Z,99.89
2018-11-01T03:41:06.632Z,99.99
2018-11-01T03:42:06.643Z,99.99
2018-11-01T03:43:06.656Z,99.99
2018-11-01T03:44:06.664Z,99.99
2018-11-01T03:45:06.678Z,99.99
2018-11-01T03:46:06.683Z,99.99
2018-11-01T03:47:06.697Z,99.99
2018-11-01T03:48:06.706Z,99.99
2018-11-01T03:49:06.719Z,99.99
2018-11-01T03:50:06.729Z,99.99
2018-11-01T03:51:06.740Z,99.99
2018-11-01T03:52:06.833Z,99.99
2018-11-01T03:53:06.764Z,99.99
2018-11-01T03:54:06.781Z,99.99
2018-11-01T03:55:06.785Z,99.99
2018-11-01T03:56:06.805Z,99.99
2018-11-01T03:57:06.810Z,99.99
2018-11-01T03:58:06.820Z,99.99
2018-11-01T03:59:06.831Z,99.99
2018-11-01T04:00:06.843Z,99.99
2018-11-01T04:01:06.852Z,99.99
2018-11-01T04:02:06.868Z,99.99
2018-11-01T04:03:06.874Z,99.99
2018-11-01T04:04:06.903Z,99.99
2018-11-01T04:05:06.898Z,99.99
2018-11-01T04:06:06.908Z,99.99
2018-11-01T04:07:06.925Z,99.99
2018-11-01T04:08:06.930Z,99.99
2018-11-01T04:09:06.942Z,99.99
2018-11-01T04:10:06.958Z,99.99
2018-11-01T04:11:06.973Z,99.99
2018-11-01T04:12:06.982Z,99.99
2018-11-01T04:13:06.990Z,99.99
2018-11-01T04:14:07.000Z,99.99
2018-11-01T04:15:07.114Z,99.99
2018-11-01T04:16:07.024Z,99.99
2018-11-01T04:17:07.120Z,99.99
2018-11-01T04:18:07.043Z,99.99
2018-11-01T04:19:07.054Z,99.99
2018-11-01T04:20:07.068Z,99.99
2018-11-01T04:21:07.079Z,99.99
2018-11-01T04:22:07.087Z,99.99
2018-11-01T04:23:07.158Z,99.99
2018-11-01T04:24:07.109Z,99.99
2018-11-01T04:25:07.127Z,99.99
2018-11-01T04:26:07.132Z,99.99
2018-11-01T04:27:07.147Z,99.99
2018-11-01T04:28:07.155Z,99.99
2018-11-01T04:29:07.167Z,99.99
2018-11-01T04:30:07.177Z,99.99
2018-11-01T04:31:07.190Z,99.99
2018-11-01T04:32:07.203Z,99.99
2018-11-01T04:33:07.294Z,99.99
2018-11-01T04:34:07.221Z,99.99
2018-11-01T04:35:07.275Z,99.99
2018-11-01T04:36:07.294Z,99.99
2018-11-01T04:37:07.256Z,99.99
2018-11-01T04:38:07.269Z,99.99
2018-11-01T04:39:07.274Z,99.99
2018-11-01T04:40:07.287Z,99.99
2018-11-01T04:41:07.304Z,99.99
2018-11-01T04:42:07.309Z,99.99
2018-11-01T04:43:07.352Z,99.99
2018-11-01T04:44:07.391Z,99.99
2018-11-01T04:46:07.373Z,99.99
2018-11-01T04:47:07.377Z,99.99
2018-11-01T04:48:07.376Z,99.99
2018-11-01T04:49:07.387Z,99.99
2018-11-01T04:50:07.398Z,99.99
2018-11-01T04:51:07.411Z,99.99
2018-11-01T04:52:07.419Z,99.99
2018-11-01T04:53:07.431Z,99.99
2018-11-01T04:54:07.445Z,99.99
2018-11-01T04:55:07.455Z,99.99
2018-11-01T04:56:07.468Z,99.99
2018-11-01T04:57:07.476Z,99.99
2018-11-01T04:58:07.485Z,99.99
2018-11-01T04:59:07.498Z,99.99
2018-11-01T05:00:07.511Z,99.99
2018-11-01T05:01:07.521Z,99.99
2018-11-01T05:02:07.533Z,99.99
2018-11-01T05:03:07.544Z,99.99
2018-11-01T05:04:07.560Z,99.99
2018-11-01T05:05:07.757Z,99.99
2018-11-01T05:06:07.576Z,99.99
2018-11-01T05:07:07.587Z,99.99
2018-11-01T05:08:07.605Z,99.99
2018-11-01T05:09:07.608Z,99.99
2018-11-01T05:10:07.622Z,99.99
2018-11-01T05:11:07.632Z,99.99
2018-11-01T05:12:07.642Z,99.99
2018-11-01T05:13:07.660Z,99.99
2018-11-01T05:14:07.674Z,99.99
2018-11-01T05:15:07.689Z,99.99
2018-11-01T05:16:07.689Z,99.99
2018-11-01T05:17:07.697Z,99.99
2018-11-01T05:18:07.708Z,99.99
2018-11-01T05:19:07.723Z,99.99
2018-11-01T05:20:07.791Z,99.99
2018-11-01T05:21:07.744Z,99.99
2018-11-01T05:22:07.752Z,99.99
2018-11-01T05:23:07.787Z,99.99
2018-11-01T05:24:07.791Z,99.99
2018-11-01T05:25:07.786Z,99.99
2018-11-01T05:26:07.796Z,99.99
2018-11-01T05:27:07.809Z,99.99
2018-11-01T05:28:07.820Z,99.99
2018-11-01T05:29:07.832Z,99.99
2018-11-01T05:30:07.846Z,99.99
2018-11-01T05:31:07.856Z,99.99
2018-11-01T05:32:07.865Z,99.99
2018-11-01T05:33:07.880Z,99.99
2018-11-01T05:34:07.885Z,99.99
2018-11-01T05:35:07.908Z,99.99
2018-11-01T05:36:07.912Z,99.99
2018-11-01T05:37:07.920Z,99.99
2018-11-01T05:38:07.999Z,99.99
2018-11-01T05:39:07.945Z,99.99
2018-11-01T05:40:07.953Z,99.99
2018-11-01T05:41:07.964Z,99.99
2018-11-01T05:42:07.990Z,99.99
2018-11-01T05:43:08.036Z,99.99
2018-11-01T05:44:07.998Z,99.99
2018-11-01T05:45:08.017Z,99.99
2018-11-01T05:46:08.021Z,99.99
2018-11-01T05:47:08.029Z,99.99
2018-11-01T05:48:08.046Z,99.99
2018-11-01T05:49:08.059Z,99.99
2018-11-01T05:50:08.067Z,99.99
2018-11-01T05:51:08.075Z,99.99
2018-11-01T05:52:08.090Z,99.99
2018-11-01T05:53:08.099Z,99.99
2018-11-01T05:54:08.111Z,99.99
2018-11-01T05:55:08.119Z,99.99
2018-11-01T05:56:08.133Z,99.99
2018-11-01T05:57:08.141Z,99.99
2018-11-01T05:58:08.154Z,99.99
2018-11-01T05:59:08.160Z,99.99
2018-11-01T06:00:08.282Z,99.99
2018-11-01T06:01:08.192Z,99.99
2018-11-01T06:02:08.205Z,99.99
2018-11-01T06:03:08.212Z,99.99
2018-11-01T06:04:08.217Z,99.99
2018-11-01T06:05:08.231Z,99.99
2018-11-01T06:06:08.243Z,99.99
2018-11-01T06:07:08.253Z,99.99
2018-11-01T06:08:08.263Z,99.99
2018-11-01T06:09:08.278Z,99.99
2018-11-01T06:10:08.284Z,99.99
2018-11-01T06:11:08.358Z,99.99
2018-11-01T06:12:08.312Z,99.99
2018-11-01T06:13:08.317Z,99.99
2018-11-01T06:14:08.327Z,99.99
2018-11-01T06:15:08.373Z,99.99
2018-11-01T06:16:08.348Z,99.99
2018-11-01T06:17:08.361Z,99.99
2018-11-01T06:18:08.376Z,99.99
2018-11-01T06:19:08.411Z,99.99
2018-11-01T06:20:08.398Z,99.99
2018-11-01T06:21:08.405Z,99.99
2018-11-01T06:22:08.416Z,99.99
2018-11-01T06:23:08.425Z,99.99
2018-11-01T06:24:08.447Z,99.99
2018-11-01T06:25:08.448Z,99.99
2018-11-01T06:26:08.461Z,99.99
2018-11-01T06:27:08.476Z,99.99
2018-11-01T06:28:08.481Z,99.99
2018-11-01T06:29:08.501Z,99.99
2018-11-01T06:30:08.557Z,99.99
2018-11-01T06:31:08.512Z,99.99
2018-11-01T06:32:08.525Z,99.99
2018-11-01T06:33:08.542Z,99.99
2018-11-01T06:34:08.546Z,99.99
2018-11-01T06:35:08.571Z,99.99
2018-11-01T06:36:08.568Z,99.99
2018-11-01T06:37:08.598Z,99.99
2018-11-01T06:38:08.589Z,99.99
2018-11-01T06:39:08.601Z,99.99
2018-11-01T06:40:08.623Z,99.99
2018-11-01T06:41:08.623Z,99.99
2018-11-01T06:42:08.634Z,99.99
2018-11-01T06:43:08.649Z,99.99
2018-11-01T06:44:08.655Z,99.99
2018-11-01T06:45:08.670Z,99.99
2018-11-01T06:46:08.680Z,99.99
2018-11-01T06:47:08.693Z,99.99
2018-11-01T06:48:08.700Z,99.99
2018-11-01T06:49:08.709Z,99.99
2018-11-01T06:50:08.718Z,99.99
2018-11-01T06:52:08.736Z,99.99
2018-11-01T06:53:08.753Z,99.99
2018-11-01T06:54:08.761Z,99.99
2018-11-01T06:55:08.766Z,99.99
2018-11-01T06:56:08.780Z,99.99
2018-11-01T06:57:08.789Z,99.99
2018-11-01T06:58:08.807Z,99.99
2018-11-01T06:59:08.924Z,99.99
2018-11-01T07:00:08.824Z,99.99
2018-11-01T07:01:08.834Z,99.99
2018-11-01T07:02:08.845Z,99.99
2018-11-01T07:03:08.855Z,99.99
2018-11-01T07:04:08.972Z,99.99
2018-11-01T07:05:08.882Z,99.99
2018-11-01T07:06:08.908Z,99.99
2018-11-01T07:07:08.896Z,99.99
2018-11-01T07:08:08.914Z,99.99
2018-11-01T07:11:08.957Z,99.99
2018-11-01T07:12:08.957Z,99.99
2018-11-01T07:13:08.966Z,99.99
2018-11-01T07:14:08.975Z,99.99
2018-11-01T07:15:08.994Z,99.99
2018-11-01T07:16:09.014Z,99.99
2018-11-01T07:17:09.082Z,99.99
2018-11-01T07:18:09.022Z,99.99
2018-11-01T07:19:09.032Z,99.99
2018-11-01T07:20:09.040Z,99.99
2018-11-01T07:21:09.049Z,99.99
2018-11-01T07:22:09.067Z,99.99
2018-11-01T07:23:09.071Z,99.99
2018-11-01T07:24:09.085Z,99.99
2018-11-01T07:25:09.105Z,99.99
2018-11-01T07:26:09.158Z,99.99
2018-11-01T07:27:09.116Z,99.99
2018-11-01T07:28:09.130Z,99.99
2018-11-01T07:29:09.138Z,99.99
2018-11-01T07:30:09.160Z,99.99
2018-11-01T07:31:09.158Z,99.99
2018-11-01T07:32:09.171Z,99.99
2018-11-01T07:33:09.181Z,99.99
2018-11-01T07:34:09.190Z,99.99
2018-11-01T07:35:09.404Z,99.99
2018-11-01T07:36:09.213Z,99.99
2018-11-01T07:37:09.240Z,99.99
2018-11-01T07:38:09.236Z,99.99
2018-11-01T07:39:09.245Z,99.99
2018-11-01T07:40:09.258Z,99.99
2018-11-01T07:41:09.274Z,99.99
2018-11-01T07:42:09.282Z,99.99
2018-11-01T07:43:09.296Z,99.99
2018-11-01T07:44:09.304Z,99.99
2018-11-01T07:45:09.311Z,99.99
2018-11-01T07:46:09.322Z,99.99
2018-11-01T07:47:09.334Z,99.99
2018-11-01T07:48:09.345Z,99.99
2018-11-01T07:49:09.360Z,99.99
2018-11-01T07:50:09.367Z,99.99
2018-11-01T07:51:09.379Z,99.99
2018-11-01T07:52:09.405Z,99.99
2018-11-01T07:53:09.401Z,99.99
2018-11-01T07:54:09.462Z,99.99
2018-11-01T07:55:09.426Z,99.99
2018-11-01T07:56:09.437Z,99.99
2018-11-01T07:57:09.446Z,99.99
2018-11-01T07:58:09.492Z,99.99
2018-11-01T07:59:09.467Z,99.99
2018-11-01T08:00:09.481Z,99.99
2018-11-01T08:01:09.491Z,99.99
2018-11-01T08:02:09.502Z,99.99
2018-11-01T08:03:09.515Z,99.99
2018-11-01T08:04:09.524Z,99.99
2018-11-01T08:05:09.541Z,99.99
2018-11-01T08:06:09.601Z,99.99
2018-11-01T08:08:09.568Z,99.99
2018-11-01T08:09:09.604Z,99.99
2018-11-01T08:10:09.591Z,99.99
2018-11-01T08:11:09.601Z,99.99
2018-11-01T08:12:09.618Z,99.99
2018-11-01T08:13:09.630Z,99.99
2018-11-01T08:15:09.697Z,99.99
2018-11-01T08:16:09.667Z,99.99
2018-11-01T08:17:09.670Z,99.99
2018-11-01T08:18:09.684Z,99.99
2018-11-01T08:19:09.693Z,99.99
2018-11-01T08:20:09.887Z,99.99
2018-11-01T08:21:09.931Z,99.99
2018-11-01T08:22:09.727Z,99.99
2018-11-01T08:23:09.755Z,99.99
2018-11-01T08:24:09.749Z,99.99
2018-11-01T08:25:09.760Z,99.99
2018-11-01T08:26:09.774Z,99.99
2018-11-01T08:27:09.814Z,99.99
2018-11-01T08:28:09.954Z,99.99
2018-11-01T08:29:09.819Z,99.99
2018-11-01T08:30:09.838Z,99.99
2018-11-01T08:31:09.830Z,99.99
2018-11-01T08:32:09.953Z,99.99
2018-11-01T08:33:09.854Z,99.99
2018-11-01T08:34:09.866Z,99.99
2018-11-01T08:35:09.875Z,99.99
2018-11-01T08:36:09.886Z,99.99
2018-11-01T08:37:09.897Z,99.99
2018-11-01T08:38:09.913Z,99.99
2018-11-01T08:39:10.031Z,99.99
2018-11-01T08:40:09.932Z,99.99
2018-11-01T08:41:09.951Z,99.99
2018-11-01T08:42:09.957Z,99.99
2018-11-01T08:43:09.967Z,99.99
2018-11-01T08:44:10.091Z,99.99
2018-11-01T08:45:09.989Z,99.99
2018-11-01T08:46:10.006Z,99.99
2018-11-01T08:47:10.583Z,99.99
2018-11-01T08:48:10.025Z,99.99
2018-11-01T08:49:10.047Z,99.99
2018-11-01T08:50:10.172Z,99.99
2018-11-01T08:51:10.067Z,99.99
2018-11-01T08:52:10.071Z,99.99
2018-11-01T08:53:10.085Z,99.99
2018-11-01T08:54:10.095Z,99.99
2018-11-01T08:55:10.109Z,99.99
2018-11-01T08:56:10.146Z,99.99
2018-11-01T08:57:10.127Z,99.99
2018-11-01T08:58:10.140Z,99.99
2018-11-01T08:59:10.161Z,99.99
2018-11-01T09:00:10.169Z,99.99
2018-11-01T09:01:10.215Z,99.41
2018-11-01T09:02:10.184Z,99.51
2018-11-01T09:03:10.199Z,99.89
2018-11-01T09:04:10.256Z,99.79
2018-11-01T09:05:10.246Z,99.69
2018-11-01T09:06:10.233Z,99.99
2018-11-01T09:07:10.251Z,99.99
2018-11-01T09:08:10.358Z,99.99
2018-11-01T09:09:10.269Z,99.99
2018-11-01T09:10:10.277Z,99.99
2018-11-01T09:11:10.294Z,99.69
2018-11-01T09:12:10.301Z,99.46
2018-11-01T09:13:10.341Z,99.18
2018-11-01T09:14:10.325Z,98.32
2018-11-01T09:15:10.395Z,99.08
2018-11-01T09:17:10.369Z,99.65
2018-11-01T09:19:11.000Z,99.99
2018-11-01T09:20:10.918Z,99.99
2018-11-01T09:21:10.478Z,99.99
2018-11-01T09:22:10.420Z,99.46
2018-11-01T09:23:10.432Z,99.37
2018-11-01T09:24:10.458Z,99.37
2018-11-01T09:25:10.459Z,99.99
2018-11-01T09:26:10.468Z,99.46
2018-11-01T09:27:10.550Z,99.22
2018-11-01T09:28:10.494Z,98.70
2018-11-01T09:29:10.503Z,98.03
2018-11-01T09:30:10.520Z,98.13
2018-11-01T09:31:10.532Z,99.37
2018-11-01T09:32:10.546Z,99.41
2018-11-01T09:33:10.562Z,98.70
2018-11-01T09:34:10.600Z,98.65
2018-11-01T09:35:10.577Z,97.17
2018-11-01T09:36:10.612Z,96.22
2018-11-01T09:37:10.608Z,96.89
2018-11-01T09:38:10.614Z,97.17
2018-11-01T09:39:10.628Z,96.36
2018-11-01T09:40:10.636Z,97.27
2018-11-01T09:41:10.655Z,97.61
2018-11-01T09:42:10.665Z,97.13
2018-11-01T09:43:10.689Z,97.32
2018-11-01T09:44:10.685Z,97.61
2018-11-01T09:45:10.704Z,99.80
2018-11-01T09:46:10.910Z,99.32
2018-11-01T09:47:10.963Z,99.13
2018-11-01T09:48:10.788Z,99.32
2018-11-01T09:49:10.918Z,99.99
2018-11-01T09:51:11.484Z,97.89
2018-11-01T09:52:11.408Z,96.84
2018-11-01T09:53:10.814Z,97.70
2018-11-01T09:54:10.813Z,97.03
2018-11-01T09:55:10.827Z,97.61
2018-11-01T09:56:11.708Z,97.70
2018-11-01T09:57:10.846Z,96.27
2018-11-01T09:58:10.861Z,96.36
2018-11-01T09:59:10.869Z,95.98
2018-11-01T10:00:10.911Z,97.51
2018-11-01T10:01:11.001Z,97.51
2018-11-01T10:02:10.906Z,96.84
2018-11-01T10:03:10.928Z,96.27
2018-11-01T10:04:10.944Z,97.13
2018-11-01T10:05:10.949Z,96.75
2018-11-01T10:06:11.024Z,97.03
2018-11-01T10:07:10.969Z,97.99
2018-11-01T10:08:11.000Z,99.13
2018-11-01T10:09:10.993Z,98.56
2018-11-01T10:10:11.014Z,98.94
2018-11-01T10:11:11.018Z,99.18
2018-11-01T10:12:11.093Z,99.89
2018-11-01T10:13:11.041Z,97.85
2018-11-01T10:14:11.056Z,98.94
2018-11-01T10:15:11.291Z,97.46
2018-11-01T10:16:11.255Z,96.41
2018-11-01T10:17:11.543Z,95.94
2018-11-01T10:18:11.614Z,95.84
2018-11-01T10:19:11.127Z,95.46
2018-11-01T10:21:11.204Z,93.84
2018-11-01T10:22:11.233Z,95.17
2018-11-01T10:23:11.287Z,95.65
2018-11-01T10:24:11.612Z,95.65
2018-11-01T10:25:11.253Z,94.70
2018-11-01T10:26:11.206Z,94.41
2018-11-01T10:27:19.516Z,94.70
2018-11-01T10:28:11.232Z,95.17
2018-11-01T10:29:11.242Z,95.56
2018-11-01T10:30:11.349Z,96.80
2018-11-01T10:31:11.342Z,95.94
2018-11-01T10:32:11.280Z,95.65
2018-11-01T10:33:11.296Z,94.98
2018-11-01T10:34:11.312Z,94.60
2018-11-01T10:35:11.318Z,93.84
2018-11-01T10:36:11.329Z,94.32
2018-11-01T10:38:11.361Z,95.12
2018-11-01T10:39:11.366Z,94.84
2018-11-01T10:40:11.417Z,96.51
2018-11-01T10:41:11.394Z,98.22
2018-11-01T10:42:11.542Z,96.70
2018-11-01T10:43:11.435Z,96.03
2018-11-01T10:44:11.428Z,96.70
2018-11-01T10:45:11.450Z,97.08
2018-11-01T10:46:11.465Z,96.41
2018-11-01T10:47:11.468Z,99.08
2018-11-01T10:48:11.477Z,98.99
2018-11-01T10:49:11.611Z,99.18
2018-11-01T10:50:11.503Z,99.46
2018-11-01T10:51:11.532Z,98.42
2018-11-01T10:52:11.527Z,99.46
2018-11-01T10:53:11.540Z,97.66
2018-11-01T10:54:11.863Z,95.27
2018-11-01T10:57:11.598Z,95.46
2018-11-01T10:58:11.602Z,95.65
2018-11-01T10:59:11.620Z,95.84
2018-11-01T11:00:11.734Z,95.56
2018-11-01T11:01:11.682Z,95.56
2018-11-01T11:02:11.652Z,96.32
2018-11-01T11:03:11.683Z,96.41
2018-11-01T11:04:11.684Z,95.84
2018-11-01T11:05:11.752Z,96.32
2018-11-01T11:06:11.706Z,96.32
2018-11-01T11:07:11.715Z,96.98
2018-11-01T11:08:11.728Z,97.27
2018-11-01T11:09:11.756Z,96.70
2018-11-01T11:10:11.753Z,96.89
2018-11-01T11:11:11.768Z,96.80
2018-11-01T11:12:11.786Z,98.03
2018-11-01T11:13:11.794Z,98.90
2018-11-01T11:14:11.804Z,97.75
2018-11-01T11:15:11.817Z,96.61
2018-11-01T11:16:11.829Z,96.70
2018-11-01T11:17:11.883Z,97.27
2018-11-01T11:18:11.855Z,96.61
2018-11-01T11:19:11.870Z,97.17
2018-11-01T11:20:11.985Z,97.66
2018-11-01T11:21:12.232Z,96.98
2018-11-01T11:22:11.905Z,96.13
2018-11-01T11:23:12.254Z,96.22
2018-11-01T11:24:12.015Z,97.03
2018-11-01T11:25:11.943Z,96.13
2018-11-01T11:26:12.032Z,98.08
2018-11-01T11:27:12.317Z,97.22
2018-11-01T11:28:12.710Z,97.03
2018-11-01T11:29:11.992Z,96.84
2018-11-01T11:30:12.160Z,96.89
2018-11-01T11:31:12.027Z,96.32
2018-11-01T11:32:12.037Z,96.98
2018-11-01T11:33:12.043Z,96.98
2018-11-01T11:34:12.059Z,96.70
2018-11-01T11:35:12.071Z,97.08
2018-11-01T11:36:12.088Z,97.56
2018-11-01T11:37:12.095Z,97.56
2018-11-01T11:38:12.118Z,96.89
2018-11-01T11:39:12.316Z,95.89
2018-11-01T11:40:12.130Z,95.98
2018-11-01T11:41:12.160Z,96.37
2018-11-01T11:42:12.184Z,95.89
2018-11-01T11:43:12.215Z,96.46
2018-11-01T11:44:12.182Z,96.27
2018-11-01T11:45:12.194Z,95.22
2018-11-01T11:46:12.207Z,95.03
2018-11-01T11:47:12.223Z,97.22
2018-11-01T11:48:12.232Z,96.17
2018-11-01T11:49:12.253Z,96.37
2018-11-01T11:50:12.271Z,97.22
2018-11-01T11:51:12.290Z,95.79
2018-11-01T11:52:12.285Z,96.27
2018-11-01T11:53:12.302Z,96.27
2018-11-01T11:54:12.408Z,96.08
2018-11-01T11:55:12.347Z,97.13
2018-11-01T11:56:12.335Z,97.13
2018-11-01T11:57:12.457Z,94.74
2018-11-01T11:58:12.359Z,93.88
2018-11-01T11:59:12.478Z,93.98
2018-11-01T12:00:12.930Z,93.98
2018-11-01T12:01:12.439Z,93.98
2018-11-01T12:02:13.008Z,94.17
2018-11-01T12:03:12.432Z,94.17
2018-11-01T12:04:12.436Z,93.41
2018-11-01T12:05:12.461Z,93.02
2018-11-01T12:06:12.551Z,93.31
2018-11-01T12:07:12.472Z,93.31
2018-11-01T12:08:12.489Z,92.83
2018-11-01T12:09:12.500Z,94.27
2018-11-01T12:10:12.511Z,95.12
2018-11-01T12:11:12.528Z,94.56
2018-11-01T12:12:12.536Z,94.65
2018-11-01T12:13:12.560Z,95.41
2018-11-01T12:14:12.669Z,93.60
2018-11-01T12:15:12.573Z,93.12
2018-11-01T12:16:12.589Z,93.60
2018-11-01T12:17:12.601Z,93.60
2018-11-01T12:18:12.651Z,93.70
2018-11-01T12:19:12.623Z,94.46
2018-11-01T12:20:12.635Z,94.07
2018-11-01T12:21:12.648Z,93.41
2018-11-01T12:22:12.663Z,93.88
2018-11-01T12:23:12.683Z,93.51
2018-11-01T12:24:12.691Z,94.56
2018-11-01T12:25:12.701Z,93.60
2018-11-01T12:26:12.711Z,93.70
2018-11-01T12:27:12.741Z,93.60
2018-11-01T12:28:12.796Z,93.12
2018-11-01T12:29:12.774Z,92.26
2018-11-01T12:30:12.763Z,91.69
2018-11-01T12:31:12.778Z,91.31
2018-11-01T12:32:12.790Z,91.50
2018-11-01T12:33:12.801Z,92.26
2018-11-01T12:35:12.897Z,91.78
2018-11-01T12:36:12.931Z,91.69
2018-11-01T12:37:12.857Z,93.79
2018-11-01T12:38:12.869Z,96.27
2018-11-01T12:39:12.880Z,95.70
2018-11-01T12:40:12.894Z,94.93
2018-11-01T12:41:12.910Z,95.41
2018-11-01T12:42:12.917Z,95.12
2018-11-01T12:43:12.927Z,95.22
2018-11-01T12:44:12.992Z,94.74
2018-11-01T12:45:12.959Z,95.12
2018-11-01T12:46:12.974Z,95.61
2018-11-01T12:47:12.983Z,94.84
2018-11-01T12:48:13.034Z,94.65
2018-11-01T12:49:13.007Z,95.03
2018-11-01T12:50:13.257Z,95.22
2018-11-01T12:51:13.033Z,95.61
2018-11-01T12:52:13.042Z,97.03
2018-11-01T12:53:13.055Z,98.27
2018-11-01T12:54:13.067Z,98.18
2018-11-01T12:55:13.118Z,97.99
2018-11-01T12:56:13.108Z,97.61
2018-11-01T12:57:13.111Z,97.89
2018-11-01T12:58:13.128Z,95.12
2018-11-01T12:59:13.131Z,94.07
2018-11-01T13:00:13.144Z,93.70
2018-11-01T13:01:13.179Z,95.98
2018-11-01T13:02:13.168Z,96.08
2018-11-01T13:03:13.182Z,97.13
2018-11-01T13:04:13.210Z,96.46
2018-11-01T13:05:13.214Z,95.51
2018-11-01T13:06:13.242Z,94.93
2018-11-01T13:07:13.278Z,95.61